Terminal Aerodrome Forecast
Issued by NWS Sterling, VA

Current Version | Previous Version | Text Only | Print | Product List | Glossary Off
Versions: 1 2 3 4 5 6 7 8 9 10 11 12 13 14 15 16 17 18 19 20 21 22 23 24 25 26

775
FTUS41 KLWX 271132
TAFIAD
TAF
KIAD 271132Z 2712/2818 VRB03KT P6SM BKN110
     FM271400 18004KT 4SM -SHRA BKN050
     FM271800 15005KT P6SM VCTS BKN050CB
     FM272200 12004KT P6SM OVC040
     FM280400 VRB03KT P6SM BKN015
     FM280600 00000KT P6SM BKN008
     FM281200 VRB03KT P6SM BKN025
     FM281400 10004KT P6SM BKN035=

USA.gov is the U.S. government's official web portal to all federal, state and local government web resources and services.